Time;durP1;ratioP1;P1;durP2;ratioP2;P2;SDS_P1;SDS_P2;PMS_P1;PMS_P2;Temp;Humidity;BMP_temperature;BMP_pressure;BME280_temperature;BME280_humidity;BME280_pressure;Samples;Min_cycle;Max_cycle;Signal;HPM_P1;HPM_P2
2023/01/05 00:00:03;;;;;;;;;;;;;;;19.88;57.42;100222.44;5019441;28;5236;-68
2023/01/05 00:02:37;;;;;;;;;;;;;;;19.87;57.25;100232.47;5022827;28;5175;-67
2023/01/05 00:05:07;;;;;;;;;;;;;;;19.86;57.44;100233.88;5022229;28;4008;-67
2023/01/05 00:07:33;;;;;;;;;;;;;;;19.86;57.36;100239.63;5021066;28;4321;-67
2023/01/05 00:10:03;;;;;;;;;;;;;;;19.85;57.40;100238.13;5021723;28;4924;-67
2023/01/05 00:23:29;;;;;;;;;;;;;;;19.83;57.40;100238.06;5024017;28;5454;-67
2023/01/05 00:25:55;;;;;;;;;;;;;;;19.83;57.29;100253.16;5023703;28;4118;-67
2023/01/05 00:28:22;;;;;;;;;;;;;;;19.83;57.29;100252.41;5020520;28;4111;-67
2023/01/05 00:30:48;;;;;;;;;;;;;;;19.82;57.28;100242.34;5022598;28;4037;-68
2023/01/05 00:33:15;;;;;;;;;;;;;;;19.82;57.27;100239.47;5021414;28;4172;-67
2023/01/05 00:35:41;;;;;;;;;;;;;;;19.81;57.30;100250.22;5022767;28;4197;-67
2023/01/05 00:38:07;;;;;;;;;;;;;;;19.81;57.39;100250.22;4998827;28;4106;-67
2023/01/05 00:40:36;;;;;;;;;;;;;;;19.81;57.26;100249.47;5018693;28;4903;-67
2023/01/05 00:43:02;;;;;;;;;;;;;;;19.80;57.33;100245.13;5023434;28;4202;-67
2023/01/05 00:45:29;;;;;;;;;;;;;;;19.80;57.31;100248.00;5009086;28;4116;-67
2023/01/05 00:47:55;;;;;;;;;;;;;;;19.79;57.32;100235.78;5027346;28;4160;-67
2023/01/05 00:50:24;;;;;;;;;;;;;;;19.79;57.22;100240.75;5027036;28;4020;-68
2023/01/05 00:52:51;;;;;;;;;;;;;;;19.79;57.32;100246.50;5026744;28;4145;-67
2023/01/05 00:55:17;;;;;;;;;;;;;;;19.79;57.18;100235.78;5015883;28;4175;-67
2023/01/05 00:57:45;;;;;;;;;;;;;;;19.78;57.25;100239.28;5005081;28;5481;-68
2023/01/05 01:00:13;;;;;;;;;;;;;;;19.78;57.09;100239.28;4994815;28;4201;-67
2023/01/05 01:02:39;;;;;;;;;;;;;;;19.78;57.09;100233.56;5010518;28;4198;-67
2023/01/05 01:05:06;;;;;;;;;;;;;;;19.79;57.24;100237.88;5025645;28;3994;-67
2023/01/05 01:07:32;;;;;;;;;;;;;;;19.78;57.14;100240.03;5026376;28;4134;-68
2023/01/05 01:09:58;;;;;;;;;;;;;;;19.78;57.01;100239.28;5025808;28;4327;-67
2023/01/05 01:12:25;;;;;;;;;;;;;;;19.77;57.02;100238.56;5025835;28;3990;-68
2023/01/05 01:14:51;;;;;;;;;;;;;;;19.78;57.03;100245.03;5021684;28;5236;-67
2023/01/05 01:17:18;;;;;;;;;;;;;;;19.78;56.97;100242.16;5027037;28;4134;-67
2023/01/05 01:19:45;;;;;;;;;;;;;;;19.77;56.94;100249.28;5001756;28;4435;-67
2023/01/05 01:22:12;;;;;;;;;;;;;;;19.77;57.00;100255.03;5024044;28;3946;-68
2023/01/05 01:24:38;;;;;;;;;;;;;;;19.77;56.91;100249.28;5023342;28;4170;-67
2023/01/05 01:27:05;;;;;;;;;;;;;;;19.78;56.85;100253.66;5028012;28;5164;-67
2023/01/05 01:29:31;;;;;;;;;;;;;;;19.77;56.94;100257.91;5019279;28;4168;-67
2023/01/05 01:31:58;;;;;;;;;;;;;;;19.75;57.00;100252.84;5024262;28;4017;-67
2023/01/05 01:34:24;;;;;;;;;;;;;;;19.76;56.95;100257.19;5022001;28;4128;-67
2023/01/05 01:36:53;;;;;;;;;;;;;;;19.75;57.06;100246.38;5025957;28;4009;-68
2023/01/05 01:39:22;;;;;;;;;;;;;;;19.75;56.96;100257.84;5001734;28;4422;-67
2023/01/05 01:41:54;;;;;;;;;;;;;;;19.75;56.96;100246.38;4999802;28;4082;-67
2023/01/05 01:44:39;;;;;;;;;;;;;;;19.75;57.03;100255.00;5021108;28;5293;-66
2023/01/05 01:47:05;;;;;;;;;;;;;;;19.73;56.90;100249.88;5024729;28;4004;-66
2023/01/05 01:49:32;;;;;;;;;;;;;;;19.74;56.86;100262.13;4980111;28;4192;-67
2023/01/05 01:52:04;;;;;;;;;;;;;;;19.74;56.88;100262.13;5022246;28;5250;-68
2023/01/05 01:54:30;;;;;;;;;;;;;;;19.73;56.90;100252.03;5004956;28;4199;-68
2023/01/05 01:56:56;;;;;;;;;;;;;;;19.73;56.75;100249.88;5024448;28;5356;-67
2023/01/05 01:59:23;;;;;;;;;;;;;;;19.72;56.85;100259.88;5008097;28;4197;-67
2023/01/05 02:01:50;;;;;;;;;;;;;;;19.72;56.77;100250.53;5023458;28;4231;-68
2023/01/05 02:04:17;;;;;;;;;;;;;;;19.72;56.90;100241.94;4991831;28;4139;-67
2023/01/05 02:06:43;;;;;;;;;;;;;;;19.71;56.81;100251.94;5011506;28;4237;-67
2023/01/05 02:09:10;;;;;;;;;;;;;;;19.72;56.77;100250.53;4999929;28;4135;-67
2023/01/05 02:11:40;;;;;;;;;;;;;;;19.71;56.66;100246.22;4999658;28;4144;-68
2023/01/05 02:14:21;;;;;;;;;;;;;;;19.70;56.82;100238.97;5001332;28;4147;-67
2023/01/05 02:16:47;;;;;;;;;;;;;;;19.69;56.78;100234.63;5025862;28;4076;-67
2023/01/05 02:19:36;;;;;;;;;;;;;;;19.69;56.74;100228.88;4998823;28;4009;-67
2023/01/05 02:26:09;;;;;;;;;;;;;;;19.69;56.69;100237.50;5012646;28;4222;-67
2023/01/05 02:29:06;;;;;;;;;;;;;;;19.68;56.65;100242.50;4974949;28;5994;-67
2023/01/05 02:31:39;;;;;;;;;;;;;;;19.67;56.67;100236.00;5005659;28;3940;-67
2023/01/05 02:34:13;;;;;;;;;;;;;;;19.67;56.61;100233.13;5004225;28;4022;-67
2023/01/05 02:36:49;;;;;;;;;;;;;;;19.67;56.58;100235.25;4985560;28;4191;-67
2023/01/05 02:39:31;;;;;;;;;;;;;;;19.67;56.48;100236.00;5003486;28;4168;-67
2023/01/05 02:41:58;;;;;;;;;;;;;;;19.67;56.57;100230.25;5018931;28;4202;-67
2023/01/05 02:44:26;;;;;;;;;;;;;;;19.66;56.61;100240.28;4986692;28;4296;-67
2023/01/05 02:47:02;;;;;;;;;;;;;;;19.65;56.55;100241.69;5019374;28;4209;-66
2023/01/05 02:49:28;;;;;;;;;;;;;;;19.65;56.54;100235.16;5021514;28;4291;-67
2023/01/05 02:51:54;;;;;;;;;;;;;;;19.64;56.50;100240.19;4978783;28;4226;-67
2023/01/05 02:54:29;;;;;;;;;;;;;;;19.64;56.47;100236.56;4987222;28;4199;-67
2023/01/05 02:57:07;;;;;;;;;;;;;;;19.63;56.38;100238.72;4978692;28;3948;-67
2023/01/05 02:59:35;;;;;;;;;;;;;;;19.62;56.34;100239.38;4988731;28;5911;-67
2023/01/05 03:02:03;;;;;;;;;;;;;;;19.62;56.46;100240.09;4999077;28;4171;-67
2023/01/05 03:04:34;;;;;;;;;;;;;;;19.63;56.28;100247.34;5020759;28;4124;-66
2023/01/05 03:07:03;;;;;;;;;;;;;;;19.62;56.36;100240.09;4998313;28;4408;-67
2023/01/05 03:09:35;;;;;;;;;;;;;;;19.62;56.39;100233.63;4992613;28;4267;-67
2023/01/05 03:15:08;;;;;;;;;;;;;;;19.61;56.17;100238.63;5001923;28;4481;-67
2023/01/05 03:17:41;;;;;;;;;;;;;;;19.61;56.09;100247.25;4996788;28;4177;-66
2023/01/05 03:20:12;;;;;;;;;;;;;;;19.61;56.18;100232.91;4997543;28;4184;-66
2023/01/05 03:37:07;;;;;;;;;;;;;;;19.59;56.00;100241.44;4996292;28;5496;-66
2023/01/05 03:39:34;;;;;;;;;;;;;;;19.58;56.08;100245.69;5021215;28;4137;-67
2023/01/05 03:42:03;;;;;;;;;;;;;;;19.60;56.27;100247.91;4997836;28;4189;-68
2023/01/05 03:44:29;;;;;;;;;;;;;;;19.61;56.16;100237.91;5017254;28;4013;-67
2023/01/05 03:46:56;;;;;;;;;;;;;;;19.63;56.31;100235.09;5003896;28;4059;-67
2023/01/05 03:49:23;;;;;;;;;;;;;;;19.64;56.41;100239.44;5002676;28;3999;-67
2023/01/05 03:51:49;;;;;;;;;;;;;;;19.64;56.43;100245.94;4998673;28;4034;-67
2023/01/05 03:54:17;;;;;;;;;;;;;;;19.64;56.51;100248.81;5000677;28;4140;-67
2023/01/05 04:00:45;;;;;;;;;;;;;;;19.70;56.68;100250.47;5006562;28;4196;-67
2023/01/05 04:03:14;;;;;;;;;;;;;;;19.67;56.76;100250.34;5001344;28;4280;-66
2023/01/05 04:05:41;;;;;;;;;;;;;;;19.72;56.57;100262.03;4994615;28;4021;-67
2023/01/05 04:08:09;;;;;;;;;;;;;;;19.72;56.68;100265.63;5004860;28;4109;-67
2023/01/05 04:10:35;;;;;;;;;;;;;;;19.75;56.62;100257.84;5020995;28;4174;-67
2023/01/05 04:13:02;;;;;;;;;;;;;;;19.74;56.45;100265.00;4997564;28;3980;-67
2023/01/05 04:15:29;;;;;;;;;;;;;;;19.75;56.40;100275.09;4997936;28;4183;-67
2023/01/05 04:17:56;;;;;;;;;;;;;;;19.76;56.81;100270.81;5004121;28;4068;-67
2023/01/05 04:20:23;;;;;;;;;;;;;;;19.77;56.61;100269.41;5007361;28;4161;-67
2023/01/05 04:22:51;;;;;;;;;;;;;;;19.78;56.56;100270.91;5015906;28;4320;-67
2023/01/05 04:25:19;;;;;;;;;;;;;;;19.77;56.65;100267.28;5028831;28;3975;-68
2023/01/05 04:27:46;;;;;;;;;;;;;;;19.76;56.43;100280.16;5031363;28;4032;-67
2023/01/05 04:30:13;;;;;;;;;;;;;;;19.75;56.61;100287.31;4997219;28;3956;-68
2023/01/05 04:32:40;;;;;;;;;;;;;;;19.76;56.56;100291.66;5004419;28;4064;-67
2023/01/05 04:35:11;;;;;;;;;;;;;;;19.75;56.48;100293.06;5025072;28;4019;-67
2023/01/05 04:37:39;;;;;;;;;;;;;;;19.77;56.54;100292.38;5020374;28;4342;-67
2023/01/05 04:40:07;;;;;;;;;;;;;;;19.76;56.60;100300.28;5021720;28;4915;-68
2023/01/05 04:42:42;;;;;;;;;;;;;;;19.77;56.57;100289.50;4999518;28;4126;-67
2023/01/05 04:45:09;;;;;;;;;;;;;;;19.78;56.57;100291.00;5007834;28;5216;-67
2023/01/05 04:47:35;;;;;;;;;;;;;;;19.79;56.75;100301.09;5007943;28;5444;-67
2023/01/05 04:50:03;;;;;;;;;;;;;;;19.80;56.64;100308.31;5013126;28;4029;-67
2023/01/05 04:52:29;;;;;;;;;;;;;;;19.81;56.57;100309.78;5002685;28;5455;-67
2023/01/05 04:54:55;;;;;;;;;;;;;;;19.81;56.55;100304.81;5018138;28;4062;-66
2023/01/05 04:57:22;;;;;;;;;;;;;;;19.83;56.62;100301.25;5019252;28;5400;-67
2023/01/05 04:59:50;;;;;;;;;;;;;;;19.83;56.63;100309.88;5011367;28;4055;-67
2023/01/05 05:02:17;;;;;;;;;;;;;;;19.83;56.66;100315.63;5024801;28;4183;-66
2023/01/05 05:04:48;;;;;;;;;;;;;;;19.83;56.77;100315.63;5012252;28;4247;-67
2023/01/05 05:07:15;;;;;;;;;;;;;;;19.83;56.76;100316.34;5001439;28;4114;-67
2023/01/05 05:09:41;;;;;;;;;;;;;;;19.82;56.77;100314.88;5013402;28;4208;-67
2023/01/05 05:12:09;;;;;;;;;;;;;;;19.82;56.81;100317.03;5007162;28;3967;-67
2023/01/05 05:14:36;;;;;;;;;;;;;;;19.82;56.68;100314.16;5003926;28;4023;-67
2023/01/05 05:17:03;;;;;;;;;;;;;;;19.79;56.81;100310.47;4996803;28;4222;-68
2023/01/05 05:19:29;;;;;;;;;;;;;;;19.76;56.93;100325.41;4996137;28;4073;-67
2023/01/05 05:21:57;;;;;;;;;;;;;;;19.77;56.72;100321.13;5002491;28;4160;-67
2023/01/05 05:24:24;;;;;;;;;;;;;;;19.75;56.82;100315.31;4985459;28;4192;-67
2023/01/05 05:26:51;;;;;;;;;;;;;;;19.82;56.74;100325.66;4979017;28;4197;-66
2023/01/05 05:29:17;;;;;;;;;;;;;;;19.83;56.58;100327.84;4977525;28;4272;-66
2023/01/05 05:31:44;;;;;;;;;;;;;;;19.85;56.78;100324.31;4982740;28;4098;-67
2023/01/05 05:34:10;;;;;;;;;;;;;;;19.85;56.72;100319.31;4984436;28;4135;-67
2023/01/05 05:36:37;;;;;;;;;;;;;;;19.86;56.71;100320.06;4979672;28;4055;-67
2023/01/05 05:39:03;;;;;;;;;;;;;;;19.85;56.61;100319.31;4985073;28;4208;-68
2023/01/05 05:41:29;;;;;;;;;;;;;;;19.85;56.78;100316.44;4986739;28;4153;-67
2023/01/05 05:43:59;;;;;;;;;;;;;;;19.86;56.84;100317.19;4979774;28;4069;-67
2023/01/05 05:46:27;;;;;;;;;;;;;;;19.86;56.57;100317.19;4980807;28;4073;-67
2023/01/05 05:48:53;;;;;;;;;;;;;;;19.85;56.69;100312.84;4985900;28;3970;-67
2023/01/05 05:51:20;;;;;;;;;;;;;;;19.85;56.63;100312.84;4983715;28;5251;-67
2023/01/05 05:53:46;;;;;;;;;;;;;;;19.86;56.59;100325.81;4980819;28;4126;-68
2023/01/05 05:56:12;;;;;;;;;;;;;;;19.87;56.67;100338.78;4979184;28;4214;-67
2023/01/05 05:58:39;;;;;;;;;;;;;;;19.90;56.67;100334.56;4976573;28;5441;-68
2023/01/05 06:01:05;;;;;;;;;;;;;;;19.87;56.70;100339.50;4980981;28;4334;-73
2023/01/05 06:03:31;;;;;;;;;;;;;;;19.93;56.37;100341.13;4972311;28;5076;-74
2023/01/05 06:05:58;;;;;;;;;;;;;;;19.93;56.57;100346.88;4976370;28;5203;-75
2023/01/05 06:08:26;;;;;;;;;;;;;;;20.05;57.05;100342.38;4967100;28;5474;-80
2023/01/05 06:10:52;;;;;;;;;;;;;;;20.21;56.94;100347.28;4975327;28;4226;-75
2023/01/05 06:13:18;;;;;;;;;;;;;;;20.27;56.93;100356.13;4981036;28;4164;-75
2023/01/05 06:15:44;;;;;;;;;;;;;;;20.36;56.64;100354.31;4983631;28;4196;-78
2023/01/05 06:18:11;;;;;;;;;;;;;;;20.36;56.19;100355.03;4991054;28;4076;-79
2023/01/05 06:20:37;;;;;;;;;;;;;;;20.36;56.47;100375.16;5018210;28;4276;-78
2023/01/05 06:23:04;;;;;;;;;;;;;;;20.40;56.85;100371.72;5010505;28;4828;-74
2023/01/05 06:25:30;;;;;;;;;;;;;;;20.40;56.97;100369.59;5013981;28;4132;-72
2023/01/05 06:27:56;;;;;;;;;;;;;;;20.42;57.82;100377.56;5016582;28;4195;-75
2023/01/05 06:30:23;;;;;;;;;;;;;;;20.43;57.68;100374.03;5014732;28;4283;-75
2023/01/05 06:32:49;;;;;;;;;;;;;;;20.46;57.61;100377.72;5013922;28;4183;-77
2023/01/05 06:35:15;;;;;;;;;;;;;;;20.46;58.22;100372.69;5018623;28;4142;-76
2023/01/05 06:37:42;;;;;;;;;;;;;;;20.50;57.94;100381.50;5013159;28;4157;-73
2023/01/05 06:40:10;;;;;;;;;;;;;;;20.56;58.26;100380.22;5016304;28;4501;-80
2023/01/05 06:42:36;;;;;;;;;;;;;;;20.63;57.93;100376.22;5021930;28;4190;-78
2023/01/05 06:45:03;;;;;;;;;;;;;;;20.58;57.90;100389.72;5018102;28;5247;-75
2023/01/05 06:47:30;;;;;;;;;;;;;;;20.85;57.58;100394.31;5009116;28;4208;-78
2023/01/05 06:49:56;;;;;;;;;;;;;;;21.14;57.45;100392.44;5016296;28;4390;-77
2023/01/05 06:52:22;;;;;;;;;;;;;;;21.26;56.69;100404.41;5017146;28;4488;-71
2023/01/05 06:54:49;;;;;;;;;;;;;;;21.28;56.84;100397.97;5009494;28;4245;-76
2023/01/05 06:57:15;;;;;;;;;;;;;;;21.31;56.64;100394.50;5012305;28;4406;-75
2023/01/05 06:59:44;;;;;;;;;;;;;;;21.24;56.37;100427.38;5019119;28;4085;-73
2023/01/05 07:02:13;;;;;;;;;;;;;;;20.95;56.91;100419.13;5021341;28;4181;-73
2023/01/05 07:04:40;;;;;;;;;;;;;;;21.19;56.87;100414.25;5019160;28;4188;-74
2023/01/05 07:07:07;;;;;;;;;;;;;;;21.12;55.99;100418.31;5008584;28;4301;-80
2023/01/05 07:09:37;;;;;;;;;;;;;;;20.87;56.93;100413.81;4991440;28;4093;-73
2023/01/05 07:12:09;;;;;;;;;;;;;;;20.70;57.24;100429.69;5012751;28;4171;-72
2023/01/05 07:14:36;;;;;;;;;;;;;;;20.64;57.81;100417.97;5016800;28;4144;-73
2023/01/05 07:17:04;;;;;;;;;;;;;;;20.61;57.47;100422.16;5013060;28;4341;-72
2023/01/05 07:19:30;;;;;;;;;;;;;;;20.66;57.51;100426.66;5016407;28;4213;-73
2023/01/05 07:21:56;;;;;;;;;;;;;;;20.76;57.33;100429.94;5022913;28;4211;-78
2023/01/05 07:24:23;;;;;;;;;;;;;;;20.76;56.94;100432.81;5017463;28;4470;-73
2023/01/05 07:26:49;;;;;;;;;;;;;;;20.76;56.28;100438.56;5021254;28;4518;-73
2023/01/05 07:29:22;;;;;;;;;;;;;;;20.96;54.79;100446.47;5020657;28;4138;-78
2023/01/05 07:31:51;;;;;;;;;;;;;;;20.87;54.13;100437.56;5018681;28;4071;-73
2023/01/05 07:34:18;;;;;;;;;;;;;;;20.81;53.59;100445.97;5016824;28;4604;-74
2023/01/05 07:36:52;;;;;;;;;;;;;;;20.80;53.37;100455.25;5018091;28;4516;-74
2023/01/05 07:39:19;;;;;;;;;;;;;;;21.04;52.45;100449.66;5016030;28;4455;-74
2023/01/05 07:41:45;;;;;;;;;;;;;;;21.00;51.94;100461.75;5017765;28;4045;-73
2023/01/05 07:44:11;;;;;;;;;;;;;;;20.95;51.68;100470.91;5016323;28;6396;-73
2023/01/05 07:46:38;;;;;;;;;;;;;;;21.02;51.30;100472.63;5017957;28;5471;-72
2023/01/05 07:49:07;;;;;;;;;;;;;;;20.96;51.33;100483.91;5019196;28;4208;-71
2023/01/05 07:51:34;;;;;;;;;;;;;;;21.01;50.89;100486.28;5012485;28;4112;-71
2023/01/05 07:54:08;;;;;;;;;;;;;;;20.92;50.40;100478.75;5007294;28;4330;-70
2023/01/05 07:56:34;;;;;;;;;;;;;;;20.63;51.70;100488.41;5019473;28;4127;-72
2023/01/05 07:59:03;;;;;;;;;;;;;;;20.55;52.00;100488.03;5018609;28;5279;-71
2023/01/05 08:01:30;;;;;;;;;;;;;;;20.68;51.59;100490.03;5016018;28;4008;-72
2023/01/05 08:03:56;;;;;;;;;;;;;;;20.67;51.37;100488.56;5015581;28;4257;-71
2023/01/05 08:06:26;;;;;;;;;;;;;;;20.65;51.41;100502.88;5016222;28;5119;-71
2023/01/05 08:08:52;;;;;;;;;;;;;;;20.87;51.01;100503.00;5021742;28;4303;-73
2023/01/05 08:11:20;;;;;;;;;;;;;;;20.78;51.77;100510.59;5012579;28;4163;-68
2023/01/05 08:13:59;;;;;;;;;;;;;;;20.83;51.74;100512.22;5008026;28;4503;-67
2023/01/05 08:16:26;;;;;;;;;;;;;;;20.88;51.93;100507.38;5017231;28;4249;-66
2023/01/05 08:18:52;;;;;;;;;;;;;;;20.91;51.97;100514.66;4989893;28;4127;-69
2023/01/05 08:21:18;;;;;;;;;;;;;;;20.78;51.95;100516.34;5015784;28;4359;-71
2023/01/05 08:23:45;;;;;;;;;;;;;;;20.72;52.25;100518.97;5014158;28;3976;-72
2023/01/05 08:26:12;;;;;;;;;;;;;;;20.68;52.50;100536.06;5018014;28;4025;-71
2023/01/05 08:28:38;;;;;;;;;;;;;;;20.70;52.99;100528.25;5010445;28;5243;-71
2023/01/05 08:31:12;;;;;;;;;;;;;;;20.77;52.74;100531.38;5003749;28;4205;-71
2023/01/05 08:33:41;;;;;;;;;;;;;;;20.85;52.82;100526.69;5012275;28;4030;-73
2023/01/05 08:36:08;;;;;;;;;;;;;;;20.97;52.30;100535.06;5009400;28;4429;-71
2023/01/05 08:38:34;;;;;;;;;;;;;;;20.71;52.84;100534.78;5003976;28;4064;-72
2023/01/05 08:41:00;;;;;;;;;;;;;;;20.53;53.21;100542.63;5014652;28;4397;-71
2023/01/05 08:43:27;;;;;;;;;;;;;;;20.47;53.34;100543.84;5014860;28;4058;-72
2023/01/05 08:45:56;;;;;;;;;;;;;;;20.49;53.63;100554.72;5020094;28;4181;-72
2023/01/05 08:48:23;;;;;;;;;;;;;;;20.51;53.56;100554.78;5019893;28;3987;-73
2023/01/05 08:50:49;;;;;;;;;;;;;;;20.53;53.56;100554.16;5018836;28;4234;-73
2023/01/05 08:53:16;;;;;;;;;;;;;;;20.41;53.34;100563.75;5012456;28;4155;-72
2023/01/05 08:55:42;;;;;;;;;;;;;;;20.38;53.18;100567.91;5016524;28;4282;-73
2023/01/05 08:58:09;;;;;;;;;;;;;;;20.42;53.83;100562.34;5022400;28;4174;-73
2023/01/05 09:00:35;;;;;;;;;;;;;;;20.45;53.79;100571.78;5018809;28;4014;-73
2023/01/05 09:03:01;;;;;;;;;;;;;;;20.45;53.93;100572.53;5019673;28;4145;-73
2023/01/05 09:05:28;;;;;;;;;;;;;;;20.47;53.99;100581.25;5020574;28;5692;-73
2023/01/05 09:07:54;;;;;;;;;;;;;;;20.48;53.99;100582.00;5020697;28;4368;-73
2023/01/05 09:10:21;;;;;;;;;;;;;;;20.47;54.01;100587.00;5021295;28;4210;-74
2023/01/05 09:12:47;;;;;;;;;;;;;;;20.47;54.00;100575.50;5024871;28;4579;-74
2023/01/05 09:15:13;;;;;;;;;;;;;;;20.47;53.83;100584.13;5019191;28;4136;-73
2023/01/05 09:17:43;;;;;;;;;;;;;;;20.47;53.85;100595.63;5016475;28;4339;-73
2023/01/05 09:20:09;;;;;;;;;;;;;;;20.46;54.23;100593.41;5024044;28;4480;-73
2023/01/05 09:22:35;;;;;;;;;;;;;;;20.47;53.96;100597.78;5021276;28;4204;-73
2023/01/05 09:25:02;;;;;;;;;;;;;;;20.48;54.04;100605.75;5015743;28;5469;-72
2023/01/05 09:27:29;;;;;;;;;;;;;;;20.56;53.95;100610.34;5013612;28;5255;-73
2023/01/05 09:29:59;;;;;;;;;;;;;;;20.66;54.21;100596.41;5014173;28;4146;-78
2023/01/05 09:32:25;;;;;;;;;;;;;;;20.76;54.29;100616.25;5023325;28;4485;-81
2023/01/05 09:34:52;;;;;;;;;;;;;;;20.90;53.95;100619.69;5010436;28;4630;-76
2023/01/05 09:37:18;;;;;;;;;;;;;;;21.03;53.65;100618.06;5018736;28;5278;-74
2023/01/05 09:39:47;;;;;;;;;;;;;;;21.01;53.56;100617.97;5022994;28;5342;-76
2023/01/05 09:42:16;;;;;;;;;;;;;;;21.01;53.68;100635.97;5019268;28;4250;-78
2023/01/05 09:44:46;;;;;;;;;;;;;;;20.97;53.63;100641.56;4999067;28;4328;-75
2023/01/05 09:47:31;;;;;;;;;;;;;;;20.85;54.25;100647.56;5019272;28;4207;-81
2023/01/05 09:49:59;;;;;;;;;;;;;;;20.87;54.38;100650.53;4998848;28;4407;-73
2023/01/05 09:52:25;;;;;;;;;;;;;;;20.95;54.34;100660.88;4998126;28;4223;-75
2023/01/05 09:54:51;;;;;;;;;;;;;;;20.98;54.45;100660.31;5023539;28;4507;-76
2023/01/05 09:57:18;;;;;;;;;;;;;;;21.03;54.41;100656.22;5019450;28;5231;-74
2023/01/05 09:59:45;;;;;;;;;;;;;;;21.06;54.17;100659.91;5024558;28;4115;-75
2023/01/05 10:02:30;;;;;;;;;;;;;;;21.08;54.31;100662.88;5002589;28;4122;-74
2023/01/05 10:04:57;;;;;;;;;;;;;;;21.10;54.36;100668.72;5016543;28;4251;-72
2023/01/05 10:07:49;;;;;;;;;;;;;;;21.12;54.10;100669.53;4995319;28;4134;-74
2023/01/05 10:10:23;;;;;;;;;;;;;;;21.12;54.32;100677.44;5009449;28;4522;-72
2023/01/05 10:13:02;;;;;;;;;;;;;;;21.15;54.21;100686.88;5027139;28;4199;-72
2023/01/05 10:15:39;;;;;;;;;;;;;;;21.16;54.35;100674.69;4994201;28;4121;-73
2023/01/05 10:18:13;;;;;;;;;;;;;;;21.16;54.20;100679.72;5001011;28;4286;-64
2023/01/05 10:20:50;;;;;;;;;;;;;;;21.15;54.49;100689.78;5019088;28;4236;-74
2023/01/05 10:23:33;;;;;;;;;;;;;;;21.03;55.10;100693.63;4998784;28;6261;-72
2023/01/05 10:26:03;;;;;;;;;;;;;;;20.88;55.09;100695.16;5021359;28;4186;-71
2023/01/05 10:28:35;;;;;;;;;;;;;;;20.87;55.34;100693.69;4995033;28;4140;-71
2023/01/05 10:31:38;;;;;;;;;;;;;;;20.88;55.88;100692.28;4999254;28;4135;-70
2023/01/05 10:34:07;;;;;;;;;;;;;;;20.98;55.49;100699.88;4933857;28;4144;-72
2023/01/05 10:36:50;;;;;;;;;;;;;;;21.04;55.47;100714.53;5014892;28;4176;-73
2023/01/05 10:39:52;;;;;;;;;;;;;;;20.99;55.63;100712.88;5020078;28;5461;-72
2023/01/05 10:42:36;;;;;;;;;;;;;;;21.04;55.32;100731.78;5018149;28;4222;-74
2023/01/05 10:45:03;;;;;;;;;;;;;;;21.07;55.04;100713.19;5018218;28;4043;-72
2023/01/05 10:47:31;;;;;;;;;;;;;;;21.17;54.90;100716.50;4999814;28;4812;-72
2023/01/05 10:49:58;;;;;;;;;;;;;;;21.20;54.79;100720.94;5012920;28;4131;-72
2023/01/05 10:52:24;;;;;;;;;;;;;;;21.22;54.90;100723.16;5012206;28;4285;-74
2023/01/05 10:54:52;;;;;;;;;;;;;;;21.19;55.07;100725.22;5005624;28;4105;-73
2023/01/05 10:57:27;;;;;;;;;;;;;;;21.22;54.70;100732.53;5017120;28;4191;-75
2023/01/05 11:00:00;;;;;;;;;;;;;;;21.08;55.24;100737.72;5017590;28;4209;-72
2023/01/05 11:02:27;;;;;;;;;;;;;;;21.01;55.58;100736.72;5014430;28;4144;-73
2023/01/05 11:04:54;;;;;;;;;;;;;;;21.11;55.30;100745.78;5015492;28;4335;-73
2023/01/05 11:07:21;;;;;;;;;;;;;;;21.18;54.49;100741.00;4993056;28;4342;-75
2023/01/05 11:09:47;;;;;;;;;;;;;;;21.11;55.10;100747.91;5006852;28;4410;-74
2023/01/05 11:12:17;;;;;;;;;;;;;;;21.06;55.12;100757.78;4986424;28;4921;-72
2023/01/05 11:14:46;;;;;;;;;;;;;;;20.79;54.18;100753.78;4976669;28;4053;-77
2023/01/05 11:17:15;;;;;;;;;;;;;;;20.88;54.36;100755.59;4989334;28;4043;-72
2023/01/05 11:19:46;;;;;;;;;;;;;;;20.84;54.37;100761.19;5011736;28;5439;-71
2023/01/05 11:22:30;;;;;;;;;;;;;;;20.95;54.59;100762.38;5011713;28;4212;-77
2023/01/05 11:25:11;;;;;;;;;;;;;;;20.91;54.82;100757.19;5015022;28;5434;-74
2023/01/05 11:27:38;;;;;;;;;;;;;;;20.99;55.46;100759.66;5011670;28;5231;-78
2023/01/05 11:30:13;;;;;;;;;;;;;;;21.14;54.95;100761.00;5019280;28;5085;-72
2023/01/05 11:32:43;;;;;;;;;;;;;;;21.19;54.81;100765.53;5013274;28;4195;-71
2023/01/05 11:35:28;;;;;;;;;;;;;;;21.22;54.97;100766.38;4990378;28;5347;-72
2023/01/05 11:37:56;;;;;;;;;;;;;;;21.20;54.62;100772.78;4991063;28;4214;-73
2023/01/05 11:40:22;;;;;;;;;;;;;;;21.09;54.73;100765.84;4994735;28;4103;-75
2023/01/05 11:42:49;;;;;;;;;;;;;;;21.15;54.68;100759.59;4993230;28;5430;-73
2023/01/05 11:45:16;;;;;;;;;;;;;;;21.20;54.68;100787.16;5020834;28;5352;-69
2023/01/05 11:47:43;;;;;;;;;;;;;;;21.25;54.54;100791.69;4998938;28;5301;-72
2023/01/05 11:50:13;;;;;;;;;;;;;;;21.30;54.61;100790.47;4998146;28;5265;-73
2023/01/05 11:52:43;;;;;;;;;;;;;;;21.33;54.19;100792.03;5017014;28;4128;-77
2023/01/05 11:55:18;;;;;;;;;;;;;;;21.30;53.97;100796.25;5018169;28;5136;-76
2023/01/05 11:57:48;;;;;;;;;;;;;;;21.29;54.38;100803.38;5022964;28;3994;-75
2023/01/05 12:00:24;;;;;;;;;;;;;;;21.32;54.09;100793.44;5021674;28;4148;-78
2023/01/05 12:03:09;;;;;;;;;;;;;;;21.40;54.01;100798.81;5018443;28;3976;-76
2023/01/05 12:06:08;;;;;;;;;;;;;;;21.38;54.04;100797.97;5019549;28;4254;-76
2023/01/05 12:08:42;;;;;;;;;;;;;;;21.43;53.44;100811.16;5001821;28;4127;-78
2023/01/05 12:11:14;;;;;;;;;;;;;;;21.44;53.28;100821.28;4990779;28;4139;-75
2023/01/05 12:14:02;;;;;;;;;;;;;;;21.43;53.80;100831.34;4993253;28;4180;-75
2023/01/05 12:16:30;;;;;;;;;;;;;;;21.41;54.14;100837.75;5014168;28;4266;-76
2023/01/05 12:19:21;;;;;;;;;;;;;;;21.45;53.78;100837.19;5021645;28;4043;-79
2023/01/05 12:22:01;;;;;;;;;;;;;;;21.50;53.68;100841.72;5015834;28;4271;-75
2023/01/05 12:24:48;;;;;;;;;;;;;;;21.53;53.65;100828.84;5018868;28;5212;-74
2023/01/05 12:27:22;;;;;;;;;;;;;;;21.42;54.04;100850.03;5018473;28;4248;-79
2023/01/05 12:29:48;;;;;;;;;;;;;;;21.41;53.93;100854.28;5013606;28;3936;-78
2023/01/05 12:32:38;;;;;;;;;;;;;;;21.47;53.72;100857.44;5015584;28;4198;-74
2023/01/05 12:35:43;;;;;;;;;;;;;;;21.53;53.64;100867.06;4996717;28;4161;-70
2023/01/05 12:38:28;;;;;;;;;;;;;;;21.42;53.79;100855.78;5014539;28;4278;-71
2023/01/05 12:40:57;;;;;;;;;;;;;;;21.43;53.94;100857.25;5025050;28;3960;-81
2023/01/05 12:43:42;;;;;;;;;;;;;;;21.50;53.64;100859.00;5018690;28;4011;-74
2023/01/05 12:46:17;;;;;;;;;;;;;;;21.45;53.67;100878.25;5019387;28;4381;-82
2023/01/05 12:48:49;;;;;;;;;;;;;;;21.43;53.76;100868.78;5003684;28;4151;-80
2023/01/05 12:51:23;;;;;;;;;;;;;;;21.45;53.59;100874.63;4995395;28;4067;-87
2023/01/05 12:53:53;;;;;;;;;;;;;;;21.52;53.41;100876.38;4997123;28;4223;-80
2023/01/05 12:56:22;;;;;;;;;;;;;;;21.54;53.23;100867.81;5003652;28;4268;-81
2023/01/05 12:58:51;;;;;;;;;;;;;;;21.56;53.39;100888.06;5020892;28;4180;-74
2023/01/05 13:01:21;;;;;;;;;;;;;;;21.49;53.25;100880.56;5021103;28;4600;-74
2023/01/05 13:03:48;;;;;;;;;;;;;;;21.51;53.44;100892.19;5018965;28;4177;-74
2023/01/05 13:06:19;;;;;;;;;;;;;;;21.47;53.29;100892.75;5019191;28;5403;-73
2023/01/05 13:08:58;;;;;;;;;;;;;;;21.51;53.53;100892.91;4999793;28;5515;-71
2023/01/05 13:11:26;;;;;;;;;;;;;;;21.49;53.60;100898.59;5000523;28;4741;-74
2023/01/05 13:13:53;;;;;;;;;;;;;;;21.53;53.24;100901.66;5002787;28;4133;-78
2023/01/05 13:16:27;;;;;;;;;;;;;;;21.34;53.55;100914.47;5018819;28;4481;-72
2023/01/05 13:18:58;;;;;;;;;;;;;;;21.23;53.94;100915.44;4997701;28;4334;-72
2023/01/05 13:21:25;;;;;;;;;;;;;;;21.20;53.92;100911.00;5021130;28;4985;-84
2023/01/05 13:23:52;;;;;;;;;;;;;;;21.29;53.97;100921.47;4997820;28;4160;-75
2023/01/05 13:26:20;;;;;;;;;;;;;;;21.33;54.13;100921.66;5004976;28;4281;-72
2023/01/05 13:28:47;;;;;;;;;;;;;;;21.36;54.63;100928.25;5000482;28;4128;-73
2023/01/05 13:31:32;;;;;;;;;;;;;;;21.34;54.47;100943.28;5014827;28;5391;-76
2023/01/05 13:34:21;;;;;;;;;;;;;;;21.36;54.45;100939.75;5013961;28;4218;-87
2023/01/05 13:37:07;;;;;;;;;;;;;;;21.45;54.98;100943.78;5016354;28;4648;-88